sensor_id;sensor_type;location;lat;lon;timestamp;P1;durP1;ratioP1;P2;durP2;ratioP2
22138;SDS011;25815;52.582;13.408;2023-06-24T00:01:36;20.52;;;14.52;;
22138;SDS011;25815;52.582;13.408;2023-06-24T00:04:03;18.73;;;14.25;;
22138;SDS011;25815;52.582;13.408;2023-06-24T00:06:29;21.05;;;14.75;;
22138;SDS011;25815;52.582;13.408;2023-06-24T00:08:55;18.95;;;14.07;;
22138;SDS011;25815;52.582;13.408;2023-06-24T00:11:28;17.67;;;13.93;;
22138;SDS011;25815;52.582;13.408;2023-06-24T00:13:54;17.63;;;13.52;;
22138;SDS011;25815;52.582;13.408;2023-06-24T00:16:20;19.17;;;13.15;;
22138;SDS011;25815;52.582;13.408;2023-06-24T00:18:52;18.90;;;13.00;;
22138;SDS011;25815;52.582;13.408;2023-06-24T00:21:18;13.73;;;12.18;;
22138;SDS011;25815;52.582;13.408;2023-06-24T00:23:44;18.17;;;12.63;;
22138;SDS011;25815;52.582;13.408;2023-06-24T00:26:13;18.80;;;13.73;;
22138;SDS011;25815;52.582;13.408;2023-06-24T00:28:39;16.13;;;13.13;;
22138;SDS011;25815;52.582;13.408;2023-06-24T00:31:05;21.52;;;13.73;;
22138;SDS011;25815;52.582;13.408;2023-06-24T00:33:31;16.17;;;13.02;;
22138;SDS011;25815;52.582;13.408;2023-06-24T00:36:00;17.48;;;13.57;;
22138;SDS011;25815;52.582;13.408;2023-06-24T00:38:26;17.48;;;14.25;;
22138;SDS011;25815;52.582;13.408;2023-06-24T00:40:57;19.48;;;14.80;;
22138;SDS011;25815;52.582;13.408;2023-06-24T00:43:23;19.52;;;14.63;;
22138;SDS011;25815;52.582;13.408;2023-06-24T00:45:49;21.83;;;16.10;;
22138;SDS011;25815;52.582;13.408;2023-06-24T00:48:15;22.73;;;15.82;;
22138;SDS011;25815;52.582;13.408;2023-06-24T00:50:41;20.35;;;16.27;;
22138;SDS011;25815;52.582;13.408;2023-06-24T00:53:10;24.77;;;17.63;;
22138;SDS011;25815;52.582;13.408;2023-06-24T00:55:37;25.00;;;16.83;;
22138;SDS011;25815;52.582;13.408;2023-06-24T00:58:03;25.67;;;18.35;;
22138;SDS011;25815;52.582;13.408;2023-06-24T01:00:29;29.15;;;18.05;;
22138;SDS011;25815;52.582;13.408;2023-06-24T01:02:57;23.70;;;19.13;;
22138;SDS011;25815;52.582;13.408;2023-06-24T01:05:24;26.88;;;18.75;;
22138;SDS011;25815;52.582;13.408;2023-06-24T01:07:51;23.17;;;17.85;;
22138;SDS011;25815;52.582;13.408;2023-06-24T01:12:47;24.05;;;18.25;;
22138;SDS011;25815;52.582;13.408;2023-06-24T01:15:13;25.23;;;18.52;;
22138;SDS011;25815;52.582;13.408;2023-06-24T01:17:54;22.08;;;17.67;;
22138;SDS011;25815;52.582;13.408;2023-06-24T01:22:57;19.35;;;16.55;;
22138;SDS011;25815;52.582;13.408;2023-06-24T01:25:40;22.30;;;17.27;;
22138;SDS011;25815;52.582;13.408;2023-06-24T01:28:20;25.10;;;17.58;;
22138;SDS011;25815;52.582;13.408;2023-06-24T01:33:17;21.70;;;16.90;;
22138;SDS011;25815;52.582;13.408;2023-06-24T01:35:45;22.33;;;17.85;;
22138;SDS011;25815;52.582;13.408;2023-06-24T01:38:24;25.40;;;17.85;;
22138;SDS011;25815;52.582;13.408;2023-06-24T01:40:50;24.15;;;18.42;;
22138;SDS011;25815;52.582;13.408;2023-06-24T01:43:17;26.27;;;18.42;;
22138;SDS011;25815;52.582;13.408;2023-06-24T01:45:45;21.20;;;17.08;;
22138;SDS011;25815;52.582;13.408;2023-06-24T01:48:13;23.95;;;17.85;;
22138;SDS011;25815;52.582;13.408;2023-06-24T01:50:39;22.80;;;18.27;;
22138;SDS011;25815;52.582;13.408;2023-06-24T01:53:08;24.83;;;18.83;;
22138;SDS011;25815;52.582;13.408;2023-06-24T01:55:34;23.75;;;17.70;;
22138;SDS011;25815;52.582;13.408;2023-06-24T01:58:01;26.08;;;17.95;;
22138;SDS011;25815;52.582;13.408;2023-06-24T02:00:28;23.17;;;18.33;;
22138;SDS011;25815;52.582;13.408;2023-06-24T02:02:55;23.08;;;17.80;;
22138;SDS011;25815;52.582;13.408;2023-06-24T02:05:21;25.73;;;17.63;;
22138;SDS011;25815;52.582;13.408;2023-06-24T02:07:47;22.30;;;17.40;;
22138;SDS011;25815;52.582;13.408;2023-06-24T02:10:14;24.23;;;17.58;;
22138;SDS011;25815;52.582;13.408;2023-06-24T02:12:41;22.38;;;18.17;;
22138;SDS011;25815;52.582;13.408;2023-06-24T02:15:07;28.15;;;17.25;;
22138;SDS011;25815;52.582;13.408;2023-06-24T02:17:34;25.60;;;17.50;;
22138;SDS011;25815;52.582;13.408;2023-06-24T02:20:01;24.60;;;17.55;;
22138;SDS011;25815;52.582;13.408;2023-06-24T02:22:28;20.75;;;17.20;;
22138;SDS011;25815;52.582;13.408;2023-06-24T02:24:54;21.65;;;15.23;;
22138;SDS011;25815;52.582;13.408;2023-06-24T02:27:20;20.80;;;16.40;;
22138;SDS011;25815;52.582;13.408;2023-06-24T02:29:47;22.48;;;16.27;;
22138;SDS011;25815;52.582;13.408;2023-06-24T02:32:13;23.25;;;16.52;;
22138;SDS011;25815;52.582;13.408;2023-06-24T02:34:39;19.98;;;15.50;;
22138;SDS011;25815;52.582;13.408;2023-06-24T02:37:05;22.77;;;16.65;;
22138;SDS011;25815;52.582;13.408;2023-06-24T02:39:31;21.38;;;16.20;;
22138;SDS011;25815;52.582;13.408;2023-06-24T02:41:57;21.17;;;16.40;;
22138;SDS011;25815;52.582;13.408;2023-06-24T02:44:23;22.10;;;16.55;;
22138;SDS011;25815;52.582;13.408;2023-06-24T02:46:49;21.17;;;16.92;;
22138;SDS011;25815;52.582;13.408;2023-06-24T02:49:16;23.23;;;16.45;;
22138;SDS011;25815;52.582;13.408;2023-06-24T02:51:42;18.92;;;14.95;;
22138;SDS011;25815;52.582;13.408;2023-06-24T02:54:08;22.40;;;15.05;;
22138;SDS011;25815;52.582;13.408;2023-06-24T02:56:37;20.27;;;14.90;;
22138;SDS011;25815;52.582;13.408;2023-06-24T02:59:06;23.83;;;16.25;;
22138;SDS011;25815;52.582;13.408;2023-06-24T03:01:32;19.38;;;14.98;;
22138;SDS011;25815;52.582;13.408;2023-06-24T03:04:03;21.33;;;15.45;;
22138;SDS011;25815;52.582;13.408;2023-06-24T03:06:29;18.75;;;15.10;;
22138;SDS011;25815;52.582;13.408;2023-06-24T03:08:57;19.02;;;14.88;;
22138;SDS011;25815;52.582;13.408;2023-06-24T03:11:23;19.48;;;14.88;;
22138;SDS011;25815;52.582;13.408;2023-06-24T03:13:51;20.98;;;15.57;;
22138;SDS011;25815;52.582;13.408;2023-06-24T03:16:17;20.48;;;15.65;;
22138;SDS011;25815;52.582;13.408;2023-06-24T03:18:43;20.35;;;15.00;;
22138;SDS011;25815;52.582;13.408;2023-06-24T03:21:09;20.92;;;14.93;;
22138;SDS011;25815;52.582;13.408;2023-06-24T03:23:36;20.35;;;15.15;;
22138;SDS011;25815;52.582;13.408;2023-06-24T03:26:02;24.02;;;14.13;;
22138;SDS011;25815;52.582;13.408;2023-06-24T03:28:29;19.58;;;14.88;;
22138;SDS011;25815;52.582;13.408;2023-06-24T03:30:55;17.95;;;14.07;;
22138;SDS011;25815;52.582;13.408;2023-06-24T03:33:21;21.33;;;13.95;;
22138;SDS011;25815;52.582;13.408;2023-06-24T03:35:49;17.33;;;13.68;;
22138;SDS011;25815;52.582;13.408;2023-06-24T03:38:15;20.05;;;14.30;;
22138;SDS011;25815;52.582;13.408;2023-06-24T03:40:41;18.33;;;14.52;;
22138;SDS011;25815;52.582;13.408;2023-06-24T03:43:08;20.25;;;13.70;;
22138;SDS011;25815;52.582;13.408;2023-06-24T03:45:34;19.00;;;14.30;;
22138;SDS011;25815;52.582;13.408;2023-06-24T03:48:00;20.60;;;14.20;;
22138;SDS011;25815;52.582;13.408;2023-06-24T03:50:26;22.38;;;14.27;;
22138;SDS011;25815;52.582;13.408;2023-06-24T03:52:52;18.13;;;13.93;;
22138;SDS011;25815;52.582;13.408;2023-06-24T03:55:18;17.88;;;13.73;;
22138;SDS011;25815;52.582;13.408;2023-06-24T03:57:44;20.08;;;14.30;;
22138;SDS011;25815;52.582;13.408;2023-06-24T04:00:10;17.27;;;13.45;;
22138;SDS011;25815;52.582;13.408;2023-06-24T04:02:40;18.35;;;14.65;;
22138;SDS011;25815;52.582;13.408;2023-06-24T04:05:07;19.83;;;14.93;;
22138;SDS011;25815;52.582;13.408;2023-06-24T04:07:33;19.27;;;14.00;;
22138;SDS011;25815;52.582;13.408;2023-06-24T04:10:00;21.90;;;14.10;;
22138;SDS011;25815;52.582;13.408;2023-06-24T04:12:26;21.27;;;13.57;;
22138;SDS011;25815;52.582;13.408;2023-06-24T04:14:52;19.63;;;14.50;;
22138;SDS011;25815;52.582;13.408;2023-06-24T04:17:18;16.35;;;13.27;;
22138;SDS011;25815;52.582;13.408;2023-06-24T04:19:44;21.10;;;14.25;;
22138;SDS011;25815;52.582;13.408;2023-06-24T04:22:10;21.80;;;13.70;;
22138;SDS011;25815;52.582;13.408;2023-06-24T04:24:36;18.52;;;14.40;;
22138;SDS011;25815;52.582;13.408;2023-06-24T04:27:02;24.98;;;14.18;;
22138;SDS011;25815;52.582;13.408;2023-06-24T04:29:28;17.75;;;13.95;;
22138;SDS011;25815;52.582;13.408;2023-06-24T04:31:54;19.70;;;13.80;;
22138;SDS011;25815;52.582;13.408;2023-06-24T04:34:19;18.27;;;14.98;;
22138;SDS011;25815;52.582;13.408;2023-06-24T04:36:45;18.30;;;13.70;;
22138;SDS011;25815;52.582;13.408;2023-06-24T04:39:11;21.23;;;14.48;;
22138;SDS011;25815;52.582;13.408;2023-06-24T04:41:37;22.08;;;14.60;;
22138;SDS011;25815;52.582;13.408;2023-06-24T04:44:03;19.15;;;14.70;;
22138;SDS011;25815;52.582;13.408;2023-06-24T04:46:30;24.88;;;15.30;;
22138;SDS011;25815;52.582;13.408;2023-06-24T04:48:57;19.83;;;14.93;;
22138;SDS011;25815;52.582;13.408;2023-06-24T04:51:23;18.42;;;14.52;;
22138;SDS011;25815;52.582;13.408;2023-06-24T04:53:49;22.00;;;14.90;;
22138;SDS011;25815;52.582;13.408;2023-06-24T04:56:15;20.30;;;14.23;;
22138;SDS011;25815;52.582;13.408;2023-06-24T04:58:41;22.20;;;14.43;;
22138;SDS011;25815;52.582;13.408;2023-06-24T05:01:07;20.05;;;14.55;;
22138;SDS011;25815;52.582;13.408;2023-06-24T05:03:33;23.52;;;15.50;;
22138;SDS011;25815;52.582;13.408;2023-06-24T05:05:59;22.05;;;14.25;;
22138;SDS011;25815;52.582;13.408;2023-06-24T05:08:25;19.70;;;13.93;;
22138;SDS011;25815;52.582;13.408;2023-06-24T05:10:51;21.40;;;13.75;;
22138;SDS011;25815;52.582;13.408;2023-06-24T05:13:17;18.92;;;13.77;;
22138;SDS011;25815;52.582;13.408;2023-06-24T05:15:43;18.52;;;13.27;;
22138;SDS011;25815;52.582;13.408;2023-06-24T05:18:09;18.58;;;12.70;;
22138;SDS011;25815;52.582;13.408;2023-06-24T05:20:35;16.33;;;12.60;;
22138;SDS011;25815;52.582;13.408;2023-06-24T05:23:01;18.88;;;12.13;;
22138;SDS011;25815;52.582;13.408;2023-06-24T05:25:27;19.48;;;12.60;;
22138;SDS011;25815;52.582;13.408;2023-06-24T05:27:53;16.85;;;12.35;;
22138;SDS011;25815;52.582;13.408;2023-06-24T05:30:19;17.02;;;11.57;;
22138;SDS011;25815;52.582;13.408;2023-06-24T05:32:45;14.65;;;11.57;;
22138;SDS011;25815;52.582;13.408;2023-06-24T05:35:11;17.90;;;11.40;;
22138;SDS011;25815;52.582;13.408;2023-06-24T05:37:36;16.38;;;11.27;;
22138;SDS011;25815;52.582;13.408;2023-06-24T05:40:03;18.35;;;10.90;;
22138;SDS011;25815;52.582;13.408;2023-06-24T05:42:30;13.77;;;10.85;;
22138;SDS011;25815;52.582;13.408;2023-06-24T05:44:56;16.60;;;11.88;;
22138;SDS011;25815;52.582;13.408;2023-06-24T05:47:22;14.18;;;10.57;;
22138;SDS011;25815;52.582;13.408;2023-06-24T05:49:48;15.15;;;10.25;;
22138;SDS011;25815;52.582;13.408;2023-06-24T05:52:14;16.52;;;11.07;;
22138;SDS011;25815;52.582;13.408;2023-06-24T05:54:40;16.55;;;10.98;;
22138;SDS011;25815;52.582;13.408;2023-06-24T05:57:06;13.88;;;10.77;;
22138;SDS011;25815;52.582;13.408;2023-06-24T05:59:35;15.35;;;10.45;;
22138;SDS011;25815;52.582;13.408;2023-06-24T06:02:01;15.27;;;10.35;;
22138;SDS011;25815;52.582;13.408;2023-06-24T06:04:30;13.55;;;10.75;;
22138;SDS011;25815;52.582;13.408;2023-06-24T06:06:56;14.55;;;10.07;;
22138;SDS011;25815;52.582;13.408;2023-06-24T06:09:22;15.40;;;10.70;;
22138;SDS011;25815;52.582;13.408;2023-06-24T06:11:48;18.45;;;10.60;;
22138;SDS011;25815;52.582;13.408;2023-06-24T06:14:14;17.48;;;10.50;;
22138;SDS011;25815;52.582;13.408;2023-06-24T06:16:40;13.93;;;10.50;;
22138;SDS011;25815;52.582;13.408;2023-06-24T06:19:05;20.48;;;10.93;;
22138;SDS011;25815;52.582;13.408;2023-06-24T06:21:31;15.90;;;10.65;;
22138;SDS011;25815;52.582;13.408;2023-06-24T06:23:57;12.20;;;10.05;;
22138;SDS011;25815;52.582;13.408;2023-06-24T06:26:23;13.18;;;10.02;;
22138;SDS011;25815;52.582;13.408;2023-06-24T06:28:49;12.77;;;9.43;;
22138;SDS011;25815;52.582;13.408;2023-06-24T06:31:18;11.77;;;9.45;;
22138;SDS011;25815;52.582;13.408;2023-06-24T06:33:44;15.00;;;9.02;;
22138;SDS011;25815;52.582;13.408;2023-06-24T06:36:10;12.05;;;8.95;;
22138;SDS011;25815;52.582;13.408;2023-06-24T06:38:36;12.52;;;9.55;;
22138;SDS011;25815;52.582;13.408;2023-06-24T06:41:01;11.52;;;8.95;;
22138;SDS011;25815;52.582;13.408;2023-06-24T06:43:27;11.88;;;8.60;;
22138;SDS011;25815;52.582;13.408;2023-06-24T06:45:53;14.48;;;8.70;;
22138;SDS011;25815;52.582;13.408;2023-06-24T06:48:19;12.20;;;8.48;;
22138;SDS011;25815;52.582;13.408;2023-06-24T06:50:46;12.25;;;8.68;;
22138;SDS011;25815;52.582;13.408;2023-06-24T06:53:12;11.13;;;8.40;;
22138;SDS011;25815;52.582;13.408;2023-06-24T06:55:37;11.90;;;8.20;;
22138;SDS011;25815;52.582;13.408;2023-06-24T06:58:04;11.02;;;8.00;;
22138;SDS011;25815;52.582;13.408;2023-06-24T07:00:30;12.35;;;9.15;;
22138;SDS011;25815;52.582;13.408;2023-06-24T07:02:56;15.23;;;8.70;;
22138;SDS011;25815;52.582;13.408;2023-06-24T07:05:22;13.07;;;8.68;;
22138;SDS011;25815;52.582;13.408;2023-06-24T07:07:48;11.23;;;8.10;;
22138;SDS011;25815;52.582;13.408;2023-06-24T07:10:15;14.30;;;8.18;;
22138;SDS011;25815;52.582;13.408;2023-06-24T07:12:42;16.70;;;9.35;;
22138;SDS011;25815;52.582;13.408;2023-06-24T07:15:08;11.93;;;8.68;;
22138;SDS011;25815;52.582;13.408;2023-06-24T07:17:35;10.65;;;7.93;;
22138;SDS011;25815;52.582;13.408;2023-06-24T07:20:01;10.05;;;7.82;;
22138;SDS011;25815;52.582;13.408;2023-06-24T07:22:27;12.48;;;8.13;;
22138;SDS011;25815;52.582;13.408;2023-06-24T07:24:55;9.98;;;7.75;;
22138;SDS011;25815;52.582;13.408;2023-06-24T07:27:21;10.93;;;7.50;;
22138;SDS011;25815;52.582;13.408;2023-06-24T07:29:47;9.68;;;7.60;;
22138;SDS011;25815;52.582;13.408;2023-06-24T07:32:13;10.98;;;7.30;;
22138;SDS011;25815;52.582;13.408;2023-06-24T07:34:39;13.88;;;8.55;;
22138;SDS011;25815;52.582;13.408;2023-06-24T07:37:05;10.43;;;7.45;;
22138;SDS011;25815;52.582;13.408;2023-06-24T07:39:31;10.30;;;7.32;;
22138;SDS011;25815;52.582;13.408;2023-06-24T07:41:57;10.20;;;6.45;;
22138;SDS011;25815;52.582;13.408;2023-06-24T07:44:22;10.75;;;6.38;;
22138;SDS011;25815;52.582;13.408;2023-06-24T07:46:48;11.15;;;5.97;;
22138;SDS011;25815;52.582;13.408;2023-06-24T07:49:16;6.65;;;5.35;;
22138;SDS011;25815;52.582;13.408;2023-06-24T07:51:42;8.48;;;5.35;;
22138;SDS011;25815;52.582;13.408;2023-06-24T07:54:09;8.18;;;5.85;;
22138;SDS011;25815;52.582;13.408;2023-06-24T07:56:35;7.03;;;5.63;;
22138;SDS011;25815;52.582;13.408;2023-06-24T07:59:01;8.15;;;5.95;;
22138;SDS011;25815;52.582;13.408;2023-06-24T08:01:27;9.32;;;6.45;;
22138;SDS011;25815;52.582;13.408;2023-06-24T08:03:53;8.65;;;5.95;;
22138;SDS011;25815;52.582;13.408;2023-06-24T08:06:19;9.95;;;6.30;;
22138;SDS011;25815;52.582;13.408;2023-06-24T08:08:45;8.68;;;5.60;;
22138;SDS011;25815;52.582;13.408;2023-06-24T08:11:11;6.82;;;5.50;;
22138;SDS011;25815;52.582;13.408;2023-06-24T08:13:38;10.90;;;6.05;;
22138;SDS011;25815;52.582;13.408;2023-06-24T08:16:04;7.82;;;6.18;;
22138;SDS011;25815;52.582;13.408;2023-06-24T08:18:30;9.57;;;6.10;;
22138;SDS011;25815;52.582;13.408;2023-06-24T08:20:57;8.60;;;5.97;;
22138;SDS011;25815;52.582;13.408;2023-06-24T08:23:23;9.00;;;5.97;;
22138;SDS011;25815;52.582;13.408;2023-06-24T08:25:49;6.72;;;4.93;;
22138;SDS011;25815;52.582;13.408;2023-06-24T08:28:15;8.45;;;5.82;;
22138;SDS011;25815;52.582;13.408;2023-06-24T08:30:41;8.35;;;5.97;;
22138;SDS011;25815;52.582;13.408;2023-06-24T08:33:07;10.80;;;5.68;;
22138;SDS011;25815;52.582;13.408;2023-06-24T08:35:33;8.23;;;5.30;;
22138;SDS011;25815;52.582;13.408;2023-06-24T08:37:58;6.72;;;5.10;;
22138;SDS011;25815;52.582;13.408;2023-06-24T08:40:24;6.55;;;5.10;;
22138;SDS011;25815;52.582;13.408;2023-06-24T08:42:50;7.38;;;5.28;;
22138;SDS011;25815;52.582;13.408;2023-06-24T08:45:16;8.95;;;5.65;;
22138;SDS011;25815;52.582;13.408;2023-06-24T08:47:42;7.45;;;5.18;;
22138;SDS011;25815;52.582;13.408;2023-06-24T08:50:11;8.75;;;4.80;;
22138;SDS011;25815;52.582;13.408;2023-06-24T08:52:37;7.30;;;5.57;;
22138;SDS011;25815;52.582;13.408;2023-06-24T08:55:04;9.20;;;5.10;;
22138;SDS011;25815;52.582;13.408;2023-06-24T08:57:31;5.55;;;4.80;;
22138;SDS011;25815;52.582;13.408;2023-06-24T08:59:57;6.00;;;4.90;;
22138;SDS011;25815;52.582;13.408;2023-06-24T09:02:23;8.60;;;5.22;;
22138;SDS011;25815;52.582;13.408;2023-06-24T09:04:50;6.85;;;4.78;;
22138;SDS011;25815;52.582;13.408;2023-06-24T09:07:25;5.25;;;4.75;;
22138;SDS011;25815;52.582;13.408;2023-06-24T09:09:51;5.70;;;4.90;;
22138;SDS011;25815;52.582;13.408;2023-06-24T09:12:17;11.63;;;5.57;;
22138;SDS011;25815;52.582;13.408;2023-06-24T09:14:47;6.20;;;4.50;;
22138;SDS011;25815;52.582;13.408;2023-06-24T09:17:13;7.13;;;5.30;;
22138;SDS011;25815;52.582;13.408;2023-06-24T09:19:39;9.18;;;4.85;;
22138;SDS011;25815;52.582;13.408;2023-06-24T09:22:07;11.45;;;5.40;;
22138;SDS011;25815;52.582;13.408;2023-06-24T09:24:34;8.55;;;5.13;;
22138;SDS011;25815;52.582;13.408;2023-06-24T09:27:00;5.43;;;4.85;;
22138;SDS011;25815;52.582;13.408;2023-06-24T09:29:35;7.53;;;5.18;;
22138;SDS011;25815;52.582;13.408;2023-06-24T09:32:04;7.35;;;5.00;;
22138;SDS011;25815;52.582;13.408;2023-06-24T09:34:31;8.40;;;4.95;;
22138;SDS011;25815;52.582;13.408;2023-06-24T09:36:57;9.07;;;4.85;;
22138;SDS011;25815;52.582;13.408;2023-06-24T09:39:24;5.22;;;4.68;;
22138;SDS011;25815;52.582;13.408;2023-06-24T09:41:56;6.13;;;4.75;;
22138;SDS011;25815;52.582;13.408;2023-06-24T09:44:22;6.30;;;5.35;;
22138;SDS011;25815;52.582;13.408;2023-06-24T09:46:48;10.15;;;4.93;;
22138;SDS011;25815;52.582;13.408;2023-06-24T09:49:14;7.20;;;4.60;;
22138;SDS011;25815;52.582;13.408;2023-06-24T09:51:42;5.32;;;4.80;;
22138;SDS011;25815;52.582;13.408;2023-06-24T09:54:09;6.53;;;4.50;;
22138;SDS011;25815;52.582;13.408;2023-06-24T09:56:36;5.55;;;4.53;;
22138;SDS011;25815;52.582;13.408;2023-06-24T09:59:06;6.25;;;4.47;;
22138;SDS011;25815;52.582;13.408;2023-06-24T10:03:58;6.10;;;4.30;;
22138;SDS011;25815;52.582;13.408;2023-06-24T10:06:24;7.45;;;4.28;;
22138;SDS011;25815;52.582;13.408;2023-06-24T10:08:51;9.50;;;4.10;;
22138;SDS011;25815;52.582;13.408;2023-06-24T10:11:18;6.63;;;3.92;;
22138;SDS011;25815;52.582;13.408;2023-06-24T10:13:43;6.25;;;3.88;;
22138;SDS011;25815;52.582;13.408;2023-06-24T10:16:09;5.25;;;4.25;;
22138;SDS011;25815;52.582;13.408;2023-06-24T10:18:38;5.05;;;3.90;;
22138;SDS011;25815;52.582;13.408;2023-06-24T10:21:06;6.93;;;4.35;;
22138;SDS011;25815;52.582;13.408;2023-06-24T10:23:33;8.60;;;3.80;;
22138;SDS011;25815;52.582;13.408;2023-06-24T10:25:59;5.93;;;4.28;;
22138;SDS011;25815;52.582;13.408;2023-06-24T10:28:25;7.68;;;4.18;;
22138;SDS011;25815;52.582;13.408;2023-06-24T10:30:54;9.80;;;4.00;;
22138;SDS011;25815;52.582;13.408;2023-06-24T10:33:20;9.15;;;4.45;;
22138;SDS011;25815;52.582;13.408;2023-06-24T10:35:46;4.53;;;3.60;;
22138;SDS011;25815;52.582;13.408;2023-06-24T10:38:12;6.10;;;3.53;;
22138;SDS011;25815;52.582;13.408;2023-06-24T10:45:48;6.75;;;3.95;;
22138;SDS011;25815;52.582;13.408;2023-06-24T10:48:15;6.38;;;3.63;;
22138;SDS011;25815;52.582;13.408;2023-06-24T10:50:41;8.30;;;4.50;;
22138;SDS011;25815;52.582;13.408;2023-06-24T10:53:07;6.93;;;3.50;;
22138;SDS011;25815;52.582;13.408;2023-06-24T10:55:33;4.70;;;3.85;;
22138;SDS011;25815;52.582;13.408;2023-06-24T10:58:07;4.57;;;3.60;;
22138;SDS011;25815;52.582;13.408;2023-06-24T11:00:34;4.70;;;4.05;;
22138;SDS011;25815;52.582;13.408;2023-06-24T11:03:15;4.38;;;3.38;;
22138;SDS011;25815;52.582;13.408;2023-06-24T11:05:42;6.32;;;3.58;;
22138;SDS011;25815;52.582;13.408;2023-06-24T11:08:08;4.03;;;3.47;;
22138;SDS011;25815;52.582;13.408;2023-06-24T11:10:44;4.15;;;3.10;;
22138;SDS011;25815;52.582;13.408;2023-06-24T11:13:10;5.55;;;3.22;;
22138;SDS011;25815;52.582;13.408;2023-06-24T11:15:36;5.32;;;3.40;;
22138;SDS011;25815;52.582;13.408;2023-06-24T11:18:03;6.15;;;3.83;;
22138;SDS011;25815;52.582;13.408;2023-06-24T11:20:29;6.97;;;3.83;;
22138;SDS011;25815;52.582;13.408;2023-06-24T11:22:55;8.02;;;3.40;;
22138;SDS011;25815;52.582;13.408;2023-06-24T11:25:21;5.97;;;3.72;;
22138;SDS011;25815;52.582;13.408;2023-06-24T11:27:49;5.55;;;3.80;;
22138;SDS011;25815;52.582;13.408;2023-06-24T11:32:43;3.90;;;2.88;;
22138;SDS011;25815;52.582;13.408;2023-06-24T11:35:10;5.05;;;3.00;;
22138;SDS011;25815;52.582;13.408;2023-06-24T11:37:37;5.78;;;3.95;;
22138;SDS011;25815;52.582;13.408;2023-06-24T11:40:06;6.78;;;4.00;;
22138;SDS011;25815;52.582;13.408;2023-06-24T11:42:36;4.15;;;3.45;;
22138;SDS011;25815;52.582;13.408;2023-06-24T11:45:03;4.68;;;3.10;;
22138;SDS011;25815;52.582;13.408;2023-06-24T11:47:33;5.80;;;3.63;;
22138;SDS011;25815;52.582;13.408;2023-06-24T11:49:59;4.47;;;3.10;;
22138;SDS011;25815;52.582;13.408;2023-06-24T11:55:12;3.87;;;3.03;;
22138;SDS011;25815;52.582;13.408;2023-06-24T11:57:57;6.35;;;2.95;;
22138;SDS011;25815;52.582;13.408;2023-06-24T12:00:25;6.13;;;3.60;;
22138;SDS011;25815;52.582;13.408;2023-06-24T12:03:04;4.13;;;3.35;;
22138;SDS011;25815;52.582;13.408;2023-06-24T12:05:31;3.33;;;3.00;;
22138;SDS011;25815;52.582;13.408;2023-06-24T12:07:58;5.40;;;2.97;;
22138;SDS011;25815;52.582;13.408;2023-06-24T12:10:25;5.13;;;3.63;;
22138;SDS011;25815;52.582;13.408;2023-06-24T12:12:51;3.88;;;2.70;;
22138;SDS011;25815;52.582;13.408;2023-06-24T12:15:17;3.38;;;2.97;;
22138;SDS011;25815;52.582;13.408;2023-06-24T12:17:43;4.70;;;2.95;;
22138;SDS011;25815;52.582;13.408;2023-06-24T12:20:09;6.30;;;2.85;;
22138;SDS011;25815;52.582;13.408;2023-06-24T12:22:35;5.68;;;2.97;;
22138;SDS011;25815;52.582;13.408;2023-06-24T12:25:02;4.65;;;3.53;;
22138;SDS011;25815;52.582;13.408;2023-06-24T12:27:27;4.32;;;2.83;;
22138;SDS011;25815;52.582;13.408;2023-06-24T12:29:54;5.28;;;3.30;;
22138;SDS011;25815;52.582;13.408;2023-06-24T12:32:20;3.58;;;2.80;;
22138;SDS011;25815;52.582;13.408;2023-06-24T12:34:46;4.35;;;3.28;;
22138;SDS011;25815;52.582;13.408;2023-06-24T12:37:12;6.30;;;3.45;;
22138;SDS011;25815;52.582;13.408;2023-06-24T12:39:38;7.85;;;3.45;;
22138;SDS011;25815;52.582;13.408;2023-06-24T12:42:04;3.97;;;3.53;;
22138;SDS011;25815;52.582;13.408;2023-06-24T12:44:31;5.63;;;3.42;;
22138;SDS011;25815;52.582;13.408;2023-06-24T12:46:56;6.35;;;3.13;;
22138;SDS011;25815;52.582;13.408;2023-06-24T12:49:22;4.07;;;3.67;;
22138;SDS011;25815;52.582;13.408;2023-06-24T12:51:48;4.28;;;3.47;;
22138;SDS011;25815;52.582;13.408;2023-06-24T12:54:14;5.15;;;3.28;;
22138;SDS011;25815;52.582;13.408;2023-06-24T12:56:40;6.32;;;3.10;;
22138;SDS011;25815;52.582;13.408;2023-06-24T12:59:06;4.47;;;3.65;;
22138;SDS011;25815;52.582;13.408;2023-06-24T13:01:32;5.97;;;3.28;;
22138;SDS011;25815;52.582;13.408;2023-06-24T13:03:58;4.72;;;3.50;;
22138;SDS011;25815;52.582;13.408;2023-06-24T13:06:24;4.82;;;3.47;;
22138;SDS011;25815;52.582;13.408;2023-06-24T13:08:50;4.70;;;3.40;;
22138;SDS011;25815;52.582;13.408;2023-06-24T13:11:16;3.75;;;3.28;;
22138;SDS011;25815;52.582;13.408;2023-06-24T13:13:42;6.22;;;2.90;;
22138;SDS011;25815;52.582;13.408;2023-06-24T13:16:08;4.95;;;3.45;;
22138;SDS011;25815;52.582;13.408;2023-06-24T13:18:34;6.22;;;3.50;;
22138;SDS011;25815;52.582;13.408;2023-06-24T13:21:00;4.15;;;3.38;;
22138;SDS011;25815;52.582;13.408;2023-06-24T13:23:26;5.78;;;3.50;;
22138;SDS011;25815;52.582;13.408;2023-06-24T13:25:52;5.43;;;3.58;;
22138;SDS011;25815;52.582;13.408;2023-06-24T13:28:18;5.13;;;3.70;;
22138;SDS011;25815;52.582;13.408;2023-06-24T13:30:44;4.03;;;3.30;;
22138;SDS011;25815;52.582;13.408;2023-06-24T13:33:10;4.90;;;3.72;;
22138;SDS011;25815;52.582;13.408;2023-06-24T13:35:36;3.55;;;3.22;;
22138;SDS011;25815;52.582;13.408;2023-06-24T13:38:02;5.13;;;3.78;;
22138;SDS011;25815;52.582;13.408;2023-06-24T13:40:28;4.32;;;3.17;;
22138;SDS011;25815;52.582;13.408;2023-06-24T13:42:56;3.80;;;3.40;;
22138;SDS011;25815;52.582;13.408;2023-06-24T13:45:22;4.25;;;3.35;;
22138;SDS011;25815;52.582;13.408;2023-06-24T13:47:48;4.82;;;3.58;;
22138;SDS011;25815;52.582;13.408;2023-06-24T13:50:14;9.07;;;3.70;;
22138;SDS011;25815;52.582;13.408;2023-06-24T13:52:40;5.50;;;3.80;;
22138;SDS011;25815;52.582;13.408;2023-06-24T13:55:06;6.22;;;3.58;;
22138;SDS011;25815;52.582;13.408;2023-06-24T13:57:32;5.07;;;3.50;;
22138;SDS011;25815;52.582;13.408;2023-06-24T13:59:58;4.60;;;3.40;;
22138;SDS011;25815;52.582;13.408;2023-06-24T14:02:24;4.28;;;3.25;;
22138;SDS011;25815;52.582;13.408;2023-06-24T14:04:50;4.00;;;3.60;;
22138;SDS011;25815;52.582;13.408;2023-06-24T14:07:16;6.13;;;3.20;;
22138;SDS011;25815;52.582;13.408;2023-06-24T14:09:42;4.65;;;3.42;;
22138;SDS011;25815;52.582;13.408;2023-06-24T14:12:08;4.30;;;3.80;;
22138;SDS011;25815;52.582;13.408;2023-06-24T14:14:34;4.15;;;3.30;;
22138;SDS011;25815;52.582;13.408;2023-06-24T14:17:05;7.70;;;3.75;;
22138;SDS011;25815;52.582;13.408;2023-06-24T14:19:33;4.45;;;3.60;;
22138;SDS011;25815;52.582;13.408;2023-06-24T14:22:00;3.88;;;3.30;;
22138;SDS011;25815;52.582;13.408;2023-06-24T14:24:26;4.30;;;3.85;;
22138;SDS011;25815;52.582;13.408;2023-06-24T14:26:52;3.53;;;3.22;;
22138;SDS011;25815;52.582;13.408;2023-06-24T14:29:18;5.15;;;3.30;;
22138;SDS011;25815;52.582;13.408;2023-06-24T14:31:44;4.88;;;3.35;;
22138;SDS011;25815;52.582;13.408;2023-06-24T14:34:10;5.10;;;3.28;;
22138;SDS011;25815;52.582;13.408;2023-06-24T14:36:36;3.72;;;2.95;;
22138;SDS011;25815;52.582;13.408;2023-06-24T14:39:02;5.22;;;3.70;;